Weather History for Cape Cod CGAS, MA

Change the Weather History Date:

Tuesday, February 5, 2013

  Actual Average Record
Temperature  
Mean Temperature 29 °F -  
Max Temperature 35 °F 36 °F 55 °F (2006)
Min Temperature 23 °F 21 °F 3 °F (2009)
Degree Days  
Heating Degree Days 36    
Moisture  
Dew Point 17 °F    
Average Humidity 72    
Maximum Humidity 100    
Minimum Humidity 32    
Precipitation  
Precipitation 0.01 in - - ()
Sea Level Pressure  
Sea Level Pressure 29.97 in    
Wind  
Wind Speed 7 mph (NE)    
Max Wind Speed 12 mph    
Max Gust Speed -    
Visibility 8 miles    
Events Snow    
Averages and records for this station are not official NWS values.
T = Trace of Precipitation, MM = Missing Value Source: NWS Daily Summary

Daily Weather History Graph

Daily Weather History Graph

Search for Another Location

Airport:

Trip Planner

Search our weather history database for the weather conditions in past years. The results will help you decide how hot, cold, wet, or windy it might be!

Date:

Astronomy

Feb. 05, 2013 Rise Set
Actual Time 6:49 AM EST 5:03 PM EST
Civil Twilight 6:20 AM EST 5:32 PM EST
Nautical Twilight 5:47 AM EST 6:05 PM EST
Astronomical Twilight 5:15 AM EST 6:37 PM EST
Moon 2:29 AM EST (2/5) 12:16 PM EST (2/5)
Length of Visible Light 11h 11m
Length of Day
10h 13m
Waning Crescent, 27% of the Moon is Illuminated
Feb 5
Waning Crescent
Feb 10
New
Feb 17
First Quarter
Feb 25
Full
Mar 4
Last Quarter

Hourly Weather History & Observations

Time (EST) Temp. Windchill Dew Point Humidity Pressure Visibility Wind Dir Wind Speed Gust Speed Precip Events Conditions
12:15 AM 24.8 °F 14.0 °F 10.4 °F 54% 29.96 in 10.0 mi WNW 11.5 mph - N/A   Unknown
12:35 AM 23.0 °F 13.9 °F 10.4 °F 59% 29.96 in 10.0 mi WNW 8.1 mph - N/A   Unknown
12:55 AM 23.0 °F 13.9 °F 10.4 °F 59% 29.96 in 10.0 mi WNW 8.1 mph - N/A   Unknown
1:15 AM 23.0 °F 13.9 °F 8.6 °F 54% 29.97 in 10.0 mi WNW 8.1 mph - N/A   Unknown
1:35 AM 24.8 °F 16.1 °F 8.6 °F 50% 29.97 in 10.0 mi WNW 8.1 mph - N/A   Unknown
1:55 AM 23.0 °F 15.8 °F 10.4 °F 59% 29.97 in 10.0 mi WNW 5.8 mph - N/A   Unknown
2:15 AM 23.0 °F 13.9 °F 8.6 °F 54% 29.97 in 10.0 mi WNW 8.1 mph - N/A   Unknown
2:35 AM 23.0 °F 15.8 °F 10.4 °F 59% 29.97 in 10.0 mi NW 5.8 mph - N/A   Unknown
2:55 AM 23.0 °F 15.8 °F 8.6 °F 54% 29.97 in 10.0 mi NW 5.8 mph - N/A   Unknown
3:15 AM 23.0 °F 18.4 °F 8.6 °F 54% 29.97 in 10.0 mi NNW 3.5 mph - N/A   Unknown
3:35 AM 23.0 °F 18.4 °F 8.6 °F 54% 29.97 in 10.0 mi NW 3.5 mph - N/A   Unknown
3:55 AM 23.0 °F - 8.6 °F 54% 29.98 in 10.0 mi Calm Calm - N/A   Unknown
4:15 AM 23.0 °F 18.4 °F 10.4 °F 59% 29.98 in 10.0 mi East 3.5 mph - N/A   Unknown
4:35 AM 23.0 °F - 8.6 °F 54% 29.98 in 10.0 mi Calm Calm - N/A   Unknown
4:55 AM 23.0 °F - 10.4 °F 59% 29.98 in 10.0 mi Calm Calm - N/A   Unknown
5:15 AM 23.0 °F 18.4 °F 10.4 °F 59% 29.98 in 10.0 mi NE 3.5 mph - N/A   Unknown
5:35 AM 23.0 °F - 12.2 °F 63% 29.98 in 10.0 mi Calm Calm - N/A   Unknown
5:55 AM 23.0 °F 18.4 °F 10.4 °F 59% 29.98 in 10.0 mi NE 3.5 mph - N/A   Unknown
6:15 AM 23.0 °F 18.4 °F 10.4 °F 59% 29.99 in 10.0 mi NE 3.5 mph - N/A   Unknown
6:35 AM 23.0 °F 18.4 °F 10.4 °F 59% 29.99 in 10.0 mi ENE 3.5 mph - N/A   Unknown
6:55 AM 23.0 °F 17.0 °F 10.4 °F 59% 29.99 in 10.0 mi NE 4.6 mph - N/A   Unknown
7:15 AM 23.0 °F 18.4 °F 8.6 °F 54% 30.00 in 10.0 mi NE 3.5 mph - N/A   Unknown
7:35 AM 23.0 °F 17.0 °F 10.4 °F 59% 30.00 in 10.0 mi NE 4.6 mph - N/A   Unknown
7:55 AM 24.8 °F 20.5 °F 10.4 °F 54% 30.01 in 10.0 mi NNE 3.5 mph - N/A   Unknown
8:15 AM 24.8 °F 19.1 °F 10.4 °F 54% 30.01 in 10.0 mi NNE 4.6 mph - N/A   Unknown
8:35 AM 24.8 °F 16.9 °F 10.4 °F 54% 30.01 in 10.0 mi NNE 6.9 mph - N/A   Unknown
8:55 AM 24.8 °F 16.1 °F 8.6 °F 50% 30.01 in 10.0 mi NNE 8.1 mph - N/A   Unknown
9:15 AM 24.8 °F 16.9 °F 10.4 °F 54% 30.02 in 10.0 mi NNE 6.9 mph - N/A   Unknown
9:35 AM 24.8 °F 16.9 °F 14.0 °F 64% 30.02 in 4.0 mi North 6.9 mph - 0.01 in Snow Light Snow
9:55 AM 24.8 °F 19.1 °F 14.0 °F 64% 30.02 in 4.0 mi North 4.6 mph - 0.04 in Snow Light Snow
10:15 AM 24.8 °F 17.9 °F 15.8 °F 69% 30.02 in 6.0 mi NNE 5.8 mph - N/A Snow Light Snow
10:35 AM 24.8 °F 16.9 °F 15.8 °F 69% 30.03 in 4.0 mi NNE 6.9 mph - 0.01 in Snow Light Snow
10:55 AM 24.8 °F 17.9 °F 17.6 °F 74% 30.03 in 3.0 mi NNE 5.8 mph - 0.06 in Snow Light Snow
11:15 AM 24.8 °F 17.9 °F 17.6 °F 74% 30.02 in 4.0 mi NNE 5.8 mph - 0.02 in Snow Light Snow
11:35 AM 24.8 °F 17.9 °F 17.6 °F 74% 30.02 in 5.0 mi NNE 5.8 mph - 0.03 in Snow Light Snow
11:55 AM 24.8 °F 16.9 °F 19.4 °F 80% 30.00 in 6.0 mi NE 6.9 mph - 0.04 in Snow Light Snow
12:15 PM 24.8 °F 16.1 °F 17.6 °F 74% 30.00 in 7.0 mi NE 8.1 mph - N/A Snow Light Snow
12:35 PM 24.8 °F 19.1 °F 17.6 °F 74% 30.00 in 7.0 mi NNE 4.6 mph - N/A Snow Light Snow
12:55 PM 24.8 °F 16.9 °F 19.4 °F 80% 29.99 in 8.0 mi NE 6.9 mph - 0.01 in Snow Light Snow
1:15 PM 24.8 °F 16.9 °F 19.4 °F 80% 29.99 in 9.0 mi NE 6.9 mph - N/A   Overcast
1:35 PM 24.8 °F 17.9 °F 19.4 °F 80% 29.99 in 8.0 mi ENE 5.8 mph - N/A Snow Light Snow
1:55 PM 24.8 °F 16.1 °F 19.4 °F 80% 29.98 in 7.0 mi NE 8.1 mph - N/A   Overcast
2:15 PM 26.6 °F 18.2 °F 19.4 °F 74% 29.98 in 8.0 mi East 8.1 mph - N/A   Overcast
2:35 PM 26.6 °F 16.8 °F 19.4 °F 74% 29.97 in 10.0 mi ENE 10.4 mph - N/A   Overcast
2:55 PM 26.6 °F 18.2 °F 21.2 °F 80% 29.98 in 4.0 mi East 8.1 mph - N/A   Overcast
3:15 PM 24.8 °F 16.9 °F 19.4 °F 80% 29.97 in 3.0 mi East 6.9 mph - N/A   Overcast
3:35 PM 26.6 °F 18.2 °F 21.2 °F 80% 29.96 in 8.0 mi East 8.1 mph - N/A   Overcast
3:55 PM 24.8 °F 15.3 °F 19.4 °F 80% 29.95 in 10.0 mi ENE 9.2 mph - N/A   Overcast
4:15 PM 26.6 °F 19.1 °F 19.4 °F 74% 29.95 in 10.0 mi East 6.9 mph - N/A   Overcast
4:35 PM 26.6 °F 19.1 °F 19.4 °F 74% 29.94 in 10.0 mi ENE 6.9 mph - N/A   Overcast
4:55 PM 26.6 °F 18.2 °F 19.4 °F 74% 29.94 in 10.0 mi ENE 8.1 mph - N/A   Overcast
5:15 PM 26.6 °F 21.2 °F 21.2 °F 80% 29.95 in 10.0 mi ENE 4.6 mph - N/A   Overcast
5:35 PM 26.6 °F 19.1 °F 21.2 °F 80% 29.95 in 8.0 mi ENE 6.9 mph - N/A   Overcast
5:55 PM 26.6 °F 20.0 °F 21.2 °F 80% 29.95 in 3.0 mi NE 5.8 mph - N/A   Overcast
6:15 PM 24.8 °F 17.9 °F 23.0 °F 93% 29.95 in 3.0 mi NE 5.8 mph - N/A   Overcast
6:35 PM 26.6 °F 20.0 °F 23.0 °F 86% 29.95 in 3.0 mi ENE 5.8 mph - N/A   Overcast
6:55 PM 26.6 °F 20.0 °F 24.8 °F 93% 29.95 in 3.0 mi NE 5.8 mph - N/A   Overcast
7:15 PM 26.6 °F 19.1 °F 24.8 °F 93% 29.95 in 4.0 mi NE 6.9 mph - N/A   Overcast
7:35 PM 26.6 °F 19.1 °F 24.8 °F 93% 29.94 in 8.0 mi NE 6.9 mph - N/A   Overcast
7:55 PM 26.6 °F 18.2 °F 24.8 °F 93% 29.94 in 10.0 mi ENE 8.1 mph - N/A   Overcast
8:15 PM 26.6 °F 21.2 °F 24.8 °F 93% 29.94 in 8.0 mi ENE 4.6 mph - N/A   Overcast
8:35 PM 26.6 °F 21.2 °F 24.8 °F 93% 29.93 in 10.0 mi ENE 4.6 mph - N/A   Overcast
8:55 PM 26.6 °F 20.0 °F 24.8 °F 93% 29.93 in 10.0 mi ENE 5.8 mph - N/A   Overcast
9:15 PM 26.6 °F 18.2 °F 26.6 °F 100% 29.93 in 9.0 mi NE 8.1 mph - N/A   Overcast
9:35 PM 28.4 °F 22.2 °F 26.6 °F 93% 29.93 in 3.0 mi NNE 5.8 mph - 0.01 in Snow Light Snow
9:55 PM 28.4 °F 21.2 °F 26.6 °F 93% 29.93 in 5.0 mi ENE 6.9 mph - 0.02 in Snow Light Snow
10:15 PM 28.4 °F 22.2 °F 26.6 °F 93% 29.92 in 5.0 mi NNE 5.8 mph - N/A Snow Light Snow
10:35 PM 28.4 °F 23.3 °F 26.6 °F 93% 29.92 in 7.0 mi NE 4.6 mph - 0.01 in Snow Light Snow
10:55 PM 28.4 °F 21.2 °F 26.6 °F 93% 29.91 in 10.0 mi NE 6.9 mph - 0.01 in Snow Light Snow
11:15 PM 28.4 °F 23.3 °F 26.6 °F 93% 29.92 in 10.0 mi NNE 4.6 mph - N/A Snow Light Snow
11:35 PM 30.2 °F 21.9 °F 28.4 °F 93% 29.91 in 10.0 mi NE 9.2 mph - N/A Snow Light Snow
11:55 PM 30.2 °F 23.4 °F 28.4 °F 93% 29.91 in 10.0 mi NE 6.9 mph - N/A   Overcast